createdAt,value
2023-05-03T00:00:10.361Z,8.50
2023-05-03T00:02:40.498Z,7.05
2023-05-03T00:05:12.998Z,7.80
2023-05-03T00:07:43.839Z,9.35
2023-05-03T00:10:13.142Z,10.35
2023-05-03T00:12:41.815Z,7.95
2023-05-03T00:15:09.675Z,8.05
2023-05-03T00:17:37.853Z,6.25
2023-05-03T00:20:05.482Z,7.22
2023-05-03T00:22:32.370Z,6.93
2023-05-03T00:25:02.402Z,9.38
2023-05-03T00:27:29.113Z,6.03
2023-05-03T00:29:55.908Z,5.93
2023-05-03T00:32:23.234Z,6.18
2023-05-03T00:34:57.322Z,7.05
2023-05-03T00:37:25.428Z,6.70
2023-05-03T00:39:52.944Z,7.03
2023-05-03T00:42:19.849Z,6.85
2023-05-03T00:44:46.595Z,6.78
2023-05-03T00:47:13.622Z,5.85
2023-05-03T00:49:41.682Z,6.05
2023-05-03T00:52:09.633Z,6.15
2023-05-03T00:54:36.818Z,6.28
2023-05-03T00:57:05.072Z,5.43
2023-05-03T00:59:33.033Z,4.68
2023-05-03T01:02:00.186Z,5.50
2023-05-03T01:04:27.965Z,6.43
2023-05-03T01:07:07.194Z,5.00
2023-05-03T01:09:53.595Z,5.10
2023-05-03T01:12:41.128Z,4.07
2023-05-03T01:15:43.675Z,5.03
2023-05-03T01:18:21.580Z,4.60
2023-05-03T01:20:49.739Z,5.78
2023-05-03T01:23:33.730Z,6.15
2023-05-03T01:26:14.126Z,7.03
2023-05-03T01:28:40.833Z,5.93
2023-05-03T01:31:07.600Z,6.97
2023-05-03T01:33:43.222Z,7.80
2023-05-03T01:36:34.563Z,6.00
2023-05-03T01:39:09.535Z,5.05
2023-05-03T01:41:37.715Z,7.32
2023-05-03T01:44:05.608Z,5.82
2023-05-03T01:46:32.324Z,5.82
2023-05-03T01:48:59.064Z,6.15
2023-05-03T01:51:25.940Z,6.28
2023-05-03T01:53:52.696Z,6.20
2023-05-03T01:56:19.391Z,6.88
2023-05-03T01:58:46.116Z,6.60
2023-05-03T02:01:12.932Z,5.72
2023-05-03T02:03:39.636Z,6.65
2023-05-03T02:06:06.417Z,8.07
2023-05-03T02:08:33.127Z,5.40
2023-05-03T02:10:59.772Z,7.20
2023-05-03T02:13:26.484Z,6.60
2023-05-03T02:15:53.142Z,7.35
2023-05-03T02:18:20.291Z,9.18
2023-05-03T02:20:47.154Z,9.13
2023-05-03T02:23:14.249Z,10.00
2023-05-03T02:25:41.778Z,8.93
2023-05-03T02:28:08.470Z,9.90
2023-05-03T02:30:36.028Z,6.90
2023-05-03T02:33:02.972Z,7.68
2023-05-03T02:35:29.746Z,6.50
2023-05-03T02:37:56.938Z,8.10
2023-05-03T02:40:23.670Z,8.13
2023-05-03T02:42:50.352Z,8.77
2023-05-03T02:45:17.241Z,8.65
2023-05-03T02:47:44.500Z,11.18
2023-05-03T02:50:11.188Z,11.45
2023-05-03T02:52:37.839Z,10.88
2023-05-03T02:55:05.605Z,10.73
2023-05-03T02:57:32.362Z,13.18
2023-05-03T02:59:59.122Z,12.45
2023-05-03T03:02:26.190Z,10.40
2023-05-03T03:04:53.300Z,11.50
2023-05-03T03:07:19.999Z,11.30
2023-05-03T03:09:46.940Z,10.23
2023-05-03T03:12:13.630Z,10.68
2023-05-03T03:14:41.613Z,10.77
2023-05-03T03:17:09.217Z,12.07
2023-05-03T03:19:35.904Z,14.48
2023-05-03T03:22:02.552Z,14.85
2023-05-03T03:24:29.437Z,15.05
2023-05-03T03:26:56.157Z,15.38
2023-05-03T03:29:22.876Z,14.10
2023-05-03T03:31:50.786Z,14.15
2023-05-03T03:34:17.766Z,14.63
2023-05-03T03:36:44.539Z,15.82
2023-05-03T03:39:11.647Z,15.70
2023-05-03T03:41:38.575Z,13.77
2023-05-03T03:44:05.548Z,15.30
2023-05-03T03:46:32.333Z,14.60
2023-05-03T03:48:59.061Z,15.68
2023-05-03T03:51:26.840Z,15.32
2023-05-03T03:53:53.517Z,17.15
2023-05-03T03:56:21.749Z,17.15
2023-05-03T03:58:48.542Z,22.52
2023-05-03T04:01:15.321Z,21.13
2023-05-03T04:03:42.337Z,19.65
2023-05-03T04:06:09.048Z,20.70
2023-05-03T04:08:35.852Z,22.80
2023-05-03T04:11:02.782Z,24.95
2023-05-03T04:13:29.541Z,22.85
2023-05-03T04:15:57.075Z,22.55
2023-05-03T04:18:23.798Z,22.52
2023-05-03T04:20:50.696Z,21.98
2023-05-03T04:23:17.467Z,22.40
2023-05-03T04:25:48.439Z,21.80
2023-05-03T04:28:15.326Z,21.85
2023-05-03T04:30:45.105Z,21.42
2023-05-03T04:33:11.848Z,23.75
2023-05-03T04:35:38.897Z,20.60
2023-05-03T04:38:05.774Z,21.70
2023-05-03T04:40:32.467Z,23.17
2023-05-03T04:42:59.113Z,23.30
2023-05-03T04:45:27.092Z,22.08
2023-05-03T04:47:53.810Z,22.63
2023-05-03T04:50:20.461Z,22.20
2023-05-03T04:52:47.947Z,25.95
2023-05-03T04:55:14.650Z,22.30
2023-05-03T04:57:42.484Z,22.33
2023-05-03T05:00:12.650Z,24.35
2023-05-03T05:02:39.724Z,25.02
2023-05-03T05:05:07.250Z,22.70
2023-05-03T05:07:34.381Z,23.48
2023-05-03T05:10:01.359Z,24.25
2023-05-03T05:12:29.497Z,22.63
2023-05-03T05:14:56.132Z,25.30
2023-05-03T05:17:23.520Z,25.55
2023-05-03T05:19:50.267Z,25.05
2023-05-03T05:22:16.962Z,29.52
2023-05-03T05:24:43.623Z,24.23
2023-05-03T05:27:10.371Z,23.77
2023-05-03T05:29:37.034Z,27.00
2023-05-03T05:32:05.377Z,23.98
2023-05-03T05:34:39.034Z,22.00
2023-05-03T05:37:10.604Z,22.38
2023-05-03T05:39:37.249Z,26.42
2023-05-03T05:42:05.041Z,25.30
2023-05-03T05:44:31.927Z,25.77
2023-05-03T05:46:58.707Z,25.33
2023-05-03T05:49:25.552Z,20.67
2023-05-03T05:51:52.196Z,23.52
2023-05-03T05:54:18.841Z,20.92
2023-05-03T05:56:45.763Z,20.08
2023-05-03T05:59:12.412Z,22.88
2023-05-03T06:01:41.847Z,23.20
2023-05-03T06:04:08.697Z,24.08
2023-05-03T06:06:35.480Z,22.90
2023-05-03T06:09:09.860Z,20.20
2023-05-03T06:11:43.723Z,20.08
2023-05-03T06:14:10.718Z,19.55
2023-05-03T06:16:37.822Z,18.90
2023-05-03T06:19:05.125Z,20.38
2023-05-03T06:21:31.865Z,19.50
2023-05-03T06:23:58.535Z,20.42
2023-05-03T06:26:25.252Z,21.38
2023-05-03T06:28:52.479Z,21.10
2023-05-03T06:31:19.309Z,21.48
2023-05-03T06:33:46.219Z,20.42
2023-05-03T06:36:13.135Z,24.15
2023-05-03T06:38:40.862Z,21.65
2023-05-03T06:41:07.579Z,20.08
2023-05-03T06:43:34.275Z,20.20
2023-05-03T06:46:00.985Z,22.27
2023-05-03T06:48:27.942Z,21.88
2023-05-03T06:50:55.160Z,21.42
2023-05-03T06:53:21.885Z,19.15
2023-05-03T06:55:48.588Z,21.02
2023-05-03T06:58:16.747Z,18.80
2023-05-03T07:00:43.487Z,19.20
2023-05-03T07:03:10.448Z,21.05
2023-05-03T07:05:37.140Z,18.50
2023-05-03T07:08:04.064Z,19.63
2023-05-03T07:10:31.333Z,20.33
2023-05-03T07:12:58.464Z,18.95
2023-05-03T07:15:25.162Z,20.08
2023-05-03T07:17:51.878Z,19.05
2023-05-03T07:20:18.683Z,21.65
2023-05-03T07:22:45.447Z,17.75
2023-05-03T07:25:14.255Z,18.92
2023-05-03T07:27:41.108Z,20.40
2023-05-03T07:30:08.282Z,21.83
2023-05-03T07:32:35.025Z,18.65
2023-05-03T07:35:01.782Z,21.55
2023-05-03T07:37:28.473Z,22.25
2023-05-03T07:39:55.174Z,22.23
2023-05-03T07:42:21.833Z,23.50
2023-05-03T07:44:48.545Z,21.55
2023-05-03T07:47:15.256Z,25.67
2023-05-03T07:49:42.073Z,21.90
2023-05-03T07:52:08.987Z,22.17
2023-05-03T07:54:35.768Z,25.48
2023-05-03T07:57:03.788Z,20.92
2023-05-03T07:59:30.690Z,20.13
2023-05-03T08:01:59.315Z,19.50
2023-05-03T08:04:27.789Z,20.05
2023-05-03T08:06:54.645Z,21.23
2023-05-03T08:09:21.705Z,21.83
2023-05-03T08:11:48.500Z,18.92
2023-05-03T08:14:15.601Z,19.73
2023-05-03T08:16:42.320Z,22.10
2023-05-03T08:19:09.035Z,21.38
2023-05-03T08:21:35.776Z,18.33
2023-05-03T08:24:02.689Z,24.15
2023-05-03T08:26:29.911Z,20.85
2023-05-03T08:28:56.737Z,19.75
2023-05-03T08:31:23.486Z,19.65
2023-05-03T08:33:50.733Z,21.90
2023-05-03T08:36:17.478Z,21.35
2023-05-03T08:38:44.569Z,19.20
2023-05-03T08:41:31.953Z,20.10
2023-05-03T08:43:59.938Z,19.30
2023-05-03T08:46:28.325Z,19.83
2023-05-03T08:48:55.523Z,19.45
2023-05-03T08:51:23.922Z,19.77
2023-05-03T08:53:51.185Z,18.98
2023-05-03T08:56:44.345Z,19.23
2023-05-03T08:59:11.825Z,26.65
2023-05-03T09:01:40.819Z,17.60
2023-05-03T09:04:08.526Z,19.27
2023-05-03T09:06:36.702Z,19.02
2023-05-03T09:09:07.297Z,21.80
2023-05-03T09:11:36.025Z,21.00
2023-05-03T09:14:10.168Z,18.88
2023-05-03T09:16:38.149Z,19.50
2023-05-03T09:19:09.378Z,21.17
2023-05-03T09:21:36.437Z,17.92
2023-05-03T09:24:12.273Z,18.92
2023-05-03T09:26:40.805Z,21.60
2023-05-03T09:29:07.842Z,20.30
2023-05-03T09:31:35.840Z,19.60
2023-05-03T09:34:05.004Z,23.52
2023-05-03T09:36:47.035Z,19.75
2023-05-03T09:39:18.001Z,22.30
2023-05-03T09:41:44.717Z,23.15
2023-05-03T09:44:12.242Z,20.00
2023-05-03T09:46:39.277Z,20.50
2023-05-03T09:49:06.279Z,18.42
2023-05-03T09:51:33.618Z,18.90
2023-05-03T09:54:00.609Z,22.15
2023-05-03T09:56:27.298Z,20.75
2023-05-03T09:58:54.693Z,18.35
2023-05-03T10:01:23.249Z,19.50
2023-05-03T10:03:51.762Z,18.02
2023-05-03T10:06:24.370Z,19.17
2023-05-03T10:09:00.891Z,18.08
2023-05-03T10:11:28.495Z,18.52
2023-05-03T10:13:56.194Z,17.67
2023-05-03T10:16:31.112Z,16.80
2023-05-03T10:19:46.535Z,18.33
2023-05-03T10:22:13.248Z,14.38
2023-05-03T10:25:02.506Z,18.45
2023-05-03T10:27:45.688Z,17.10
2023-05-03T10:30:36.020Z,14.95
2023-05-03T10:33:11.885Z,14.50
2023-05-03T10:35:43.852Z,15.18
2023-05-03T10:38:20.966Z,17.27
2023-05-03T10:40:47.874Z,14.57
2023-05-03T10:43:29.853Z,16.05
2023-05-03T10:46:06.522Z,15.65
2023-05-03T10:48:34.883Z,15.98
2023-05-03T10:51:38.818Z,15.90
2023-05-03T10:54:05.523Z,14.63
2023-05-03T10:56:32.304Z,14.15
2023-05-03T10:58:59.276Z,14.85
2023-05-03T11:01:27.960Z,15.15
2023-05-03T11:04:05.319Z,14.40
2023-05-03T11:06:37.243Z,14.52
2023-05-03T11:09:06.626Z,14.40
2023-05-03T11:11:35.555Z,14.15
2023-05-03T11:14:03.150Z,14.23
2023-05-03T11:16:31.041Z,14.35
2023-05-03T11:18:59.007Z,11.23
2023-05-03T11:21:26.163Z,14.20
2023-05-03T11:23:52.920Z,12.38
2023-05-03T11:26:23.714Z,14.10
2023-05-03T11:28:50.393Z,13.32
2023-05-03T11:31:17.346Z,11.95
2023-05-03T11:33:46.511Z,13.63
2023-05-03T11:36:14.935Z,13.02
2023-05-03T11:38:41.596Z,13.23
2023-05-03T11:41:18.160Z,13.05
2023-05-03T11:43:46.610Z,13.63
2023-05-03T11:46:25.416Z,13.13
2023-05-03T11:48:52.324Z,14.70
2023-05-03T11:51:23.489Z,11.48
2023-05-03T11:53:51.811Z,11.90
2023-05-03T11:56:20.551Z,12.05
2023-05-03T11:58:59.679Z,13.52
2023-05-03T12:01:30.321Z,10.68
2023-05-03T12:03:58.493Z,12.93
2023-05-03T12:06:27.857Z,11.25
2023-05-03T12:08:55.614Z,11.23
2023-05-03T12:11:25.754Z,11.27
2023-05-03T12:14:02.199Z,11.27
2023-05-03T12:16:45.958Z,9.65
2023-05-03T12:19:23.502Z,9.60
2023-05-03T12:22:07.715Z,10.32
2023-05-03T12:24:39.403Z,9.20
2023-05-03T12:27:08.698Z,10.73
2023-05-03T12:29:35.943Z,9.57
2023-05-03T12:32:04.093Z,9.38
2023-05-03T12:34:35.584Z,9.45
2023-05-03T12:37:05.601Z,9.18
2023-05-03T12:39:34.071Z,9.98
2023-05-03T12:44:35.185Z,7.57
2023-05-03T12:47:02.924Z,7.63
2023-05-03T12:49:30.088Z,7.90
2023-05-03T12:54:33.417Z,5.88
2023-05-03T12:57:08.172Z,9.88
2023-05-03T12:59:42.003Z,7.90
2023-05-03T13:04:58.079Z,7.93
2023-05-03T13:07:29.528Z,7.32
2023-05-03T13:12:27.344Z,5.97
2023-05-03T13:14:57.837Z,4.82
2023-05-03T13:17:24.783Z,5.07
2023-05-03T13:19:52.298Z,4.95
2023-05-03T13:22:19.158Z,4.25
2023-05-03T13:24:47.250Z,4.53
2023-05-03T13:27:14.618Z,3.47
2023-05-03T13:29:42.025Z,4.15
2023-05-03T13:32:09.604Z,7.38
2023-05-03T13:34:36.890Z,3.92
2023-05-03T13:37:06.718Z,4.25
2023-05-03T13:39:33.418Z,5.22
2023-05-03T13:42:00.292Z,5.50
2023-05-03T13:44:27.019Z,8.63
2023-05-03T13:46:53.995Z,3.95
2023-05-03T13:49:20.978Z,2.90
2023-05-03T13:51:48.226Z,3.50
2023-05-03T13:54:14.901Z,4.22
2023-05-03T13:56:43.050Z,3.95
2023-05-03T13:59:12.540Z,2.78
2023-05-03T14:01:39.936Z,2.50
2023-05-03T14:04:07.166Z,3.63
2023-05-03T14:06:34.254Z,2.30
2023-05-03T14:09:01.995Z,3.17
2023-05-03T14:11:30.415Z,3.00
2023-05-03T14:13:58.480Z,2.97
2023-05-03T14:16:40.055Z,3.22
2023-05-03T14:19:10.763Z,3.58
2023-05-03T14:21:38.139Z,3.72
2023-05-03T14:24:06.794Z,3.15
2023-05-03T14:26:34.243Z,3.40
2023-05-03T14:29:01.403Z,3.03
2023-05-03T14:31:28.324Z,3.42
2023-05-03T14:33:55.222Z,4.05
2023-05-03T14:36:21.989Z,3.00
2023-05-03T14:38:48.797Z,3.22
2023-05-03T14:41:15.567Z,2.28
2023-05-03T14:43:42.278Z,4.45
2023-05-03T14:46:10.041Z,2.95
2023-05-03T14:48:38.128Z,4.15
2023-05-03T14:51:05.440Z,2.40
2023-05-03T14:53:32.292Z,3.85
2023-05-03T14:55:59.410Z,2.38
2023-05-03T14:58:26.506Z,2.90
2023-05-03T15:00:53.751Z,2.25
2023-05-03T15:03:20.828Z,4.75
2023-05-03T15:05:49.006Z,2.97
2023-05-03T15:08:17.605Z,2.42
2023-05-03T15:10:44.689Z,2.90
2023-05-03T15:13:12.552Z,4.97
2023-05-03T15:15:40.546Z,2.72
2023-05-03T15:18:09.151Z,3.42
2023-05-03T15:20:36.433Z,3.28
2023-05-03T15:23:06.349Z,2.70
2023-05-03T15:25:33.446Z,2.00
2023-05-03T15:28:03.653Z,2.85
2023-05-03T15:30:32.212Z,3.00
2023-05-03T15:32:59.116Z,2.33
2023-05-03T15:35:26.291Z,3.00
2023-05-03T15:37:53.153Z,4.25
2023-05-03T15:40:23.048Z,2.80
2023-05-03T15:42:51.847Z,5.38
2023-05-03T15:45:18.966Z,5.05
2023-05-03T15:47:46.387Z,2.53
2023-05-03T15:50:13.405Z,2.40
2023-05-03T15:52:40.316Z,2.40
2023-05-03T15:55:09.469Z,2.80
2023-05-03T15:57:36.291Z,2.80
2023-05-03T16:00:13.200Z,3.35
2023-05-03T16:02:40.675Z,3.65
2023-05-03T16:05:07.913Z,4.93
2023-05-03T16:07:34.684Z,2.92
2023-05-03T16:10:01.574Z,3.10
2023-05-03T16:12:28.384Z,3.72
2023-05-03T16:14:55.672Z,3.10
2023-05-03T16:17:22.446Z,4.47
2023-05-03T16:19:49.197Z,3.55
2023-05-03T16:22:16.854Z,3.17
2023-05-03T16:24:44.268Z,3.63
2023-05-03T16:27:11.268Z,3.80
2023-05-03T16:29:38.969Z,3.20
2023-05-03T16:32:09.606Z,3.90
2023-05-03T16:34:37.770Z,3.08
2023-05-03T16:37:05.052Z,3.40
2023-05-03T16:39:32.440Z,3.50
2023-05-03T16:41:59.119Z,3.35
2023-05-03T16:44:26.087Z,4.38
2023-05-03T16:46:53.255Z,3.83
2023-05-03T16:49:20.420Z,3.38
2023-05-03T16:51:47.193Z,3.70
2023-05-03T16:54:16.462Z,2.80
2023-05-03T16:56:44.159Z,3.50
2023-05-03T16:59:10.969Z,3.22
2023-05-03T17:01:37.845Z,4.40
2023-05-03T17:04:06.298Z,4.13
2023-05-03T17:06:33.099Z,3.35
2023-05-03T17:08:59.974Z,3.90
2023-05-03T17:11:26.693Z,3.58
2023-05-03T17:13:53.425Z,2.75
2023-05-03T17:16:21.793Z,3.17
2023-05-03T17:18:49.170Z,3.03
2023-05-03T17:21:16.036Z,3.33
2023-05-03T17:23:42.873Z,3.47
2023-05-03T17:26:10.799Z,3.00
2023-05-03T17:28:37.925Z,3.90
2023-05-03T17:31:06.494Z,3.75
2023-05-03T17:33:34.349Z,5.63
2023-05-03T17:36:04.944Z,3.17
2023-05-03T17:38:33.268Z,3.80
2023-05-03T17:41:07.792Z,3.72
2023-05-03T17:43:35.986Z,4.03
2023-05-03T17:46:08.910Z,3.83
2023-05-03T17:48:38.946Z,3.47
2023-05-03T17:51:07.103Z,4.05
2023-05-03T17:53:34.224Z,3.40
2023-05-03T17:56:01.029Z,3.47
2023-05-03T17:58:27.893Z,4.40
2023-05-03T18:00:56.500Z,4.72
2023-05-03T18:03:24.110Z,3.63
2023-05-03T18:05:50.934Z,5.05
2023-05-03T18:08:17.902Z,3.10
2023-05-03T18:10:45.018Z,4.00
2023-05-03T18:13:12.716Z,5.00
2023-05-03T18:15:41.759Z,3.75
2023-05-03T18:18:09.016Z,3.40
2023-05-03T18:20:35.830Z,3.67
2023-05-03T18:23:02.682Z,5.15
2023-05-03T18:25:29.497Z,5.18
2023-05-03T18:27:57.257Z,4.38
2023-05-03T18:30:29.062Z,3.47
2023-05-03T18:32:56.149Z,4.03
2023-05-03T18:35:22.981Z,3.80
2023-05-03T18:37:49.641Z,3.40
2023-05-03T18:40:17.080Z,3.33
2023-05-03T18:42:43.869Z,3.90
2023-05-03T18:45:11.378Z,3.13
2023-05-03T18:47:38.114Z,3.63
2023-05-03T18:50:05.596Z,3.53
2023-05-03T18:52:32.524Z,4.07
2023-05-03T18:54:59.242Z,4.45
2023-05-03T18:57:27.184Z,4.47
2023-05-03T19:00:01.063Z,4.90
2023-05-03T19:02:31.310Z,5.75
2023-05-03T19:04:58.917Z,3.92
2023-05-03T19:07:25.738Z,4.57
2023-05-03T19:09:57.126Z,4.97
2023-05-03T19:12:24.030Z,5.18
2023-05-03T19:14:50.797Z,4.60
2023-05-03T19:17:17.532Z,5.90
2023-05-03T19:19:44.450Z,4.38
2023-05-03T19:22:11.163Z,6.30
2023-05-03T19:24:37.903Z,4.30
2023-05-03T19:27:04.743Z,6.68
2023-05-03T19:29:31.559Z,7.40
2023-05-03T19:31:58.266Z,4.97
2023-05-03T19:34:24.928Z,7.18
2023-05-03T19:36:51.626Z,4.10
2023-05-03T19:39:18.331Z,5.40
2023-05-03T19:41:45.059Z,4.78
2023-05-03T19:44:12.327Z,4.75
2023-05-03T19:46:39.122Z,5.47
2023-05-03T19:49:06.247Z,4.38
2023-05-03T19:51:33.066Z,6.10
2023-05-03T19:54:03.067Z,5.43
2023-05-03T19:56:29.792Z,4.40
2023-05-03T19:58:56.713Z,4.75
2023-05-03T20:01:23.802Z,4.88
2023-05-03T20:03:53.212Z,4.93
2023-05-03T20:06:20.306Z,6.55
2023-05-03T20:08:47.194Z,5.95
2023-05-03T20:11:13.973Z,6.40
2023-05-03T20:13:40.689Z,5.97
2023-05-03T20:16:08.257Z,5.50
2023-05-03T20:18:35.125Z,6.32
2023-05-03T20:21:02.270Z,5.85
2023-05-03T20:23:29.009Z,5.93
2023-05-03T20:25:55.665Z,5.95
2023-05-03T20:28:23.094Z,7.78
2023-05-03T20:30:49.917Z,6.60
2023-05-03T20:33:16.617Z,5.20
2023-05-03T20:35:43.573Z,6.05
2023-05-03T20:38:10.239Z,14.10
2023-05-03T20:40:36.968Z,5.90
2023-05-03T20:43:04.249Z,6.15
2023-05-03T20:45:31.167Z,6.68
2023-05-03T20:47:57.918Z,7.47
2023-05-03T20:50:24.747Z,5.82
2023-05-03T20:52:51.420Z,6.00
2023-05-03T20:55:18.229Z,7.28
2023-05-03T20:57:45.150Z,6.85
2023-05-03T21:00:12.468Z,6.43
2023-05-03T21:02:39.233Z,6.47
2023-05-03T21:05:06.502Z,9.75
2023-05-03T21:07:33.153Z,8.63
2023-05-03T21:09:59.847Z,7.18
2023-05-03T21:12:26.782Z,8.52
2023-05-03T21:14:53.609Z,8.43
2023-05-03T21:17:20.302Z,9.02
2023-05-03T21:19:47.034Z,6.93
2023-05-03T21:22:13.734Z,10.63
2023-05-03T21:24:40.461Z,36.33
2023-05-03T21:27:07.129Z,27.23
2023-05-03T21:29:33.856Z,7.97
2023-05-03T21:32:00.728Z,17.58
2023-05-03T21:34:27.472Z,20.00
2023-05-03T21:36:54.145Z,12.70
2023-05-03T21:39:21.535Z,71.68
2023-05-03T21:41:48.744Z,20.60
2023-05-03T21:44:15.643Z,7.80
2023-05-03T21:46:42.936Z,11.77
2023-05-03T21:49:09.833Z,12.95
2023-05-03T21:51:36.592Z,17.42
2023-05-03T21:54:03.401Z,7.80
2023-05-03T21:56:30.086Z,7.72
2023-05-03T21:58:56.875Z,7.25
2023-05-03T22:01:23.646Z,7.43
2023-05-03T22:03:50.475Z,7.05
2023-05-03T22:06:17.393Z,6.93
2023-05-03T22:08:44.158Z,7.20
2023-05-03T22:11:11.494Z,7.05
2023-05-03T22:13:49.649Z,7.13
2023-05-03T22:16:25.050Z,7.43
2023-05-03T22:18:51.825Z,6.97
2023-05-03T22:21:18.541Z,7.60
2023-05-03T22:23:45.307Z,7.05
2023-05-03T22:26:12.494Z,6.88
2023-05-03T22:28:39.215Z,7.35
2023-05-03T22:31:06.227Z,7.00
2023-05-03T22:33:33.015Z,7.32
2023-05-03T22:35:59.681Z,7.63
2023-05-03T22:38:26.340Z,9.95
2023-05-03T22:40:53.025Z,8.80
2023-05-03T22:43:19.751Z,7.85
2023-05-03T22:45:47.167Z,9.70
2023-05-03T22:48:13.899Z,8.75
2023-05-03T22:50:40.584Z,8.25
2023-05-03T22:53:07.240Z,7.85
2023-05-03T22:55:35.333Z,7.60
2023-05-03T22:58:01.989Z,9.80
2023-05-03T23:00:28.704Z,7.88
2023-05-03T23:02:55.635Z,8.55
2023-05-03T23:05:22.401Z,13.02
2023-05-03T23:07:49.116Z,7.72
2023-05-03T23:10:15.866Z,7.60
2023-05-03T23:12:42.577Z,8.02
2023-05-03T23:15:10.345Z,10.27
2023-05-03T23:17:37.383Z,10.93
2023-05-03T23:20:05.691Z,8.95
2023-05-03T23:22:32.718Z,8.15
2023-05-03T23:25:00.062Z,8.98
2023-05-03T23:27:27.040Z,7.97
2023-05-03T23:29:54.434Z,8.93
2023-05-03T23:32:21.756Z,9.25
2023-05-03T23:34:48.917Z,8.73
2023-05-03T23:37:15.801Z,8.52
2023-05-03T23:39:44.296Z,10.10
2023-05-03T23:42:12.158Z,9.55
2023-05-03T23:44:54.019Z,9.88
2023-05-03T23:47:22.202Z,8.98
2023-05-03T23:49:48.893Z,9.48
2023-05-03T23:52:18.850Z,11.68
2023-05-03T23:54:45.795Z,9.30
2023-05-03T23:57:12.444Z,9.48
2023-05-03T23:59:39.329Z,8.45
